sensor_id;sensor_type;location;lat;lon;timestamp;temperature;humidity
921;DHT22;447;51.332;6.778;2023-02-28T00:01:13;5.30;98.30
921;DHT22;447;51.332;6.778;2023-02-28T00:03:41;5.30;98.30
921;DHT22;447;51.332;6.778;2023-02-28T00:06:12;5.30;98.30
921;DHT22;447;51.332;6.778;2023-02-28T00:08:38;5.20;98.30
921;DHT22;447;51.332;6.778;2023-02-28T00:11:11;5.20;98.30
921;DHT22;447;51.332;6.778;2023-02-28T00:13:42;5.20;98.30
921;DHT22;447;51.332;6.778;2023-02-28T00:16:11;5.20;98.30
921;DHT22;447;51.332;6.778;2023-02-28T00:18:39;5.20;98.30
921;DHT22;447;51.332;6.778;2023-02-28T00:21:08;5.20;98.30
921;DHT22;447;51.332;6.778;2023-02-28T00:23:36;5.20;98.30
921;DHT22;447;51.332;6.778;2023-02-28T00:26:03;5.20;98.30
921;DHT22;447;51.332;6.778;2023-02-28T00:28:29;5.20;98.30
921;DHT22;447;51.332;6.778;2023-02-28T00:30:55;5.20;98.30
921;DHT22;447;51.332;6.778;2023-02-28T00:33:22;5.20;98.30
921;DHT22;447;51.332;6.778;2023-02-28T00:35:51;5.20;98.30
921;DHT22;447;51.332;6.778;2023-02-28T00:38:16;5.20;98.30
921;DHT22;447;51.332;6.778;2023-02-28T00:40:43;5.20;98.30
921;DHT22;447;51.332;6.778;2023-02-28T00:43:10;5.20;98.30
921;DHT22;447;51.332;6.778;2023-02-28T00:45:39;5.10;98.20
921;DHT22;447;51.332;6.778;2023-02-28T00:48:07;5.10;98.20
921;DHT22;447;51.332;6.778;2023-02-28T00:50:33;5.10;98.30
921;DHT22;447;51.332;6.778;2023-02-28T00:53:01;5.10;98.20
921;DHT22;447;51.332;6.778;2023-02-28T00:55:27;5.10;98.20
921;DHT22;447;51.332;6.778;2023-02-28T00:57:53;5.10;98.20
921;DHT22;447;51.332;6.778;2023-02-28T01:00:19;5.10;98.30
921;DHT22;447;51.332;6.778;2023-02-28T01:02:48;5.10;98.20
921;DHT22;447;51.332;6.778;2023-02-28T01:05:14;5.10;98.30
921;DHT22;447;51.332;6.778;2023-02-28T01:07:40;5.10;98.30
921;DHT22;447;51.332;6.778;2023-02-28T01:10:07;5.10;98.30
921;DHT22;447;51.332;6.778;2023-02-28T01:12:36;5.10;98.30
921;DHT22;447;51.332;6.778;2023-02-28T01:15:02;5.10;98.30
921;DHT22;447;51.332;6.778;2023-02-28T01:17:30;5.00;98.30
921;DHT22;447;51.332;6.778;2023-02-28T01:20:02;5.00;98.30
921;DHT22;447;51.332;6.778;2023-02-28T01:22:30;5.00;98.20
921;DHT22;447;51.332;6.778;2023-02-28T01:25:01;5.00;98.30
921;DHT22;447;51.332;6.778;2023-02-28T01:27:31;5.00;98.30
921;DHT22;447;51.332;6.778;2023-02-28T01:29:59;5.00;98.30
921;DHT22;447;51.332;6.778;2023-02-28T01:32:27;5.00;98.30
921;DHT22;447;51.332;6.778;2023-02-28T01:34:53;5.00;98.30
921;DHT22;447;51.332;6.778;2023-02-28T01:37:19;5.00;98.60
921;DHT22;447;51.332;6.778;2023-02-28T01:39:48;5.00;98.30
921;DHT22;447;51.332;6.778;2023-02-28T01:42:14;5.00;98.30
921;DHT22;447;51.332;6.778;2023-02-28T01:45:01;5.00;98.30
921;DHT22;447;51.332;6.778;2023-02-28T01:47:34;5.00;98.30
921;DHT22;447;51.332;6.778;2023-02-28T01:50:07;4.90;98.30
921;DHT22;447;51.332;6.778;2023-02-28T01:52:35;4.90;98.40
921;DHT22;447;51.332;6.778;2023-02-28T01:55:05;4.90;98.30
921;DHT22;447;51.332;6.778;2023-02-28T01:57:39;4.90;98.40
921;DHT22;447;51.332;6.778;2023-02-28T02:00:11;4.90;98.40
921;DHT22;447;51.332;6.778;2023-02-28T02:02:48;4.90;98.40
921;DHT22;447;51.332;6.778;2023-02-28T02:05:26;4.90;98.40
921;DHT22;447;51.332;6.778;2023-02-28T02:08:12;4.90;98.40
921;DHT22;447;51.332;6.778;2023-02-28T02:10:45;4.90;98.40
921;DHT22;447;51.332;6.778;2023-02-28T02:13:38;4.90;98.40
921;DHT22;447;51.332;6.778;2023-02-28T02:18:50;4.80;98.40
921;DHT22;447;51.332;6.778;2023-02-28T02:34:43;4.80;98.40
921;DHT22;447;51.332;6.778;2023-02-28T02:40:31;4.80;98.40
921;DHT22;447;51.332;6.778;2023-02-28T02:43:08;4.80;98.40
921;DHT22;447;51.332;6.778;2023-02-28T02:45:52;4.80;98.40
921;DHT22;447;51.332;6.778;2023-02-28T02:48:29;4.80;98.50
921;DHT22;447;51.332;6.778;2023-02-28T02:51:07;4.80;98.40
921;DHT22;447;51.332;6.778;2023-02-28T02:53:50;4.80;98.80
921;DHT22;447;51.332;6.778;2023-02-28T02:56:24;4.70;98.40
921;DHT22;447;51.332;6.778;2023-02-28T02:58:58;4.80;98.50
921;DHT22;447;51.332;6.778;2023-02-28T03:01:29;4.70;98.40
921;DHT22;447;51.332;6.778;2023-02-28T03:04:06;4.70;98.40
921;DHT22;447;51.332;6.778;2023-02-28T03:06:37;4.70;98.40
921;DHT22;447;51.332;6.778;2023-02-28T03:09:03;4.70;98.40
921;DHT22;447;51.332;6.778;2023-02-28T03:11:35;4.70;98.50
921;DHT22;447;51.332;6.778;2023-02-28T03:25:37;4.70;98.40
921;DHT22;447;51.332;6.778;2023-02-28T03:31:10;4.60;98.40
921;DHT22;447;51.332;6.778;2023-02-28T03:34:14;4.70;98.40
921;DHT22;447;51.332;6.778;2023-02-28T03:36:51;4.70;98.40
921;DHT22;447;51.332;6.778;2023-02-28T03:39:20;4.60;98.40
921;DHT22;447;51.332;6.778;2023-02-28T03:42:00;4.60;98.40
921;DHT22;447;51.332;6.778;2023-02-28T03:44:37;4.60;98.40
921;DHT22;447;51.332;6.778;2023-02-28T03:47:31;4.60;98.40
921;DHT22;447;51.332;6.778;2023-02-28T03:52:39;4.60;98.40
921;DHT22;447;51.332;6.778;2023-02-28T03:55:09;4.60;98.40
921;DHT22;447;51.332;6.778;2023-02-28T03:58:01;4.60;98.40
921;DHT22;447;51.332;6.778;2023-02-28T04:00:34;4.60;98.40
921;DHT22;447;51.332;6.778;2023-02-28T04:03:04;4.60;98.40
921;DHT22;447;51.332;6.778;2023-02-28T04:05:32;4.60;98.40
921;DHT22;447;51.332;6.778;2023-02-28T04:08:07;4.60;98.40
921;DHT22;447;51.332;6.778;2023-02-28T04:10:35;4.60;98.70
921;DHT22;447;51.332;6.778;2023-02-28T04:13:02;4.60;98.30
921;DHT22;447;51.332;6.778;2023-02-28T04:15:31;4.50;98.30
921;DHT22;447;51.332;6.778;2023-02-28T04:17:59;4.50;98.30
921;DHT22;447;51.332;6.778;2023-02-28T04:20:29;4.50;98.30
921;DHT22;447;51.332;6.778;2023-02-28T04:22:58;4.50;98.30
921;DHT22;447;51.332;6.778;2023-02-28T04:25:24;4.50;98.30
921;DHT22;447;51.332;6.778;2023-02-28T04:27:50;4.50;98.30
921;DHT22;447;51.332;6.778;2023-02-28T04:30:18;4.50;98.30
921;DHT22;447;51.332;6.778;2023-02-28T04:32:46;4.50;98.30
921;DHT22;447;51.332;6.778;2023-02-28T04:35:12;4.50;98.30
921;DHT22;447;51.332;6.778;2023-02-28T04:37:43;4.50;98.30
921;DHT22;447;51.332;6.778;2023-02-28T04:40:10;4.50;98.30
921;DHT22;447;51.332;6.778;2023-02-28T04:42:38;4.50;98.30
921;DHT22;447;51.332;6.778;2023-02-28T04:45:05;4.50;98.30
921;DHT22;447;51.332;6.778;2023-02-28T04:47:36;4.40;98.30
921;DHT22;447;51.332;6.778;2023-02-28T04:50:02;4.40;98.30
921;DHT22;447;51.332;6.778;2023-02-28T04:52:31;4.40;98.30
921;DHT22;447;51.332;6.778;2023-02-28T04:55:05;4.40;98.20
921;DHT22;447;51.332;6.778;2023-02-28T04:57:33;4.40;98.20
921;DHT22;447;51.332;6.778;2023-02-28T05:00:03;4.40;98.20
921;DHT22;447;51.332;6.778;2023-02-28T05:02:37;4.40;98.20
921;DHT22;447;51.332;6.778;2023-02-28T05:05:10;4.40;98.20
921;DHT22;447;51.332;6.778;2023-02-28T05:07:44;4.40;98.20
921;DHT22;447;51.332;6.778;2023-02-28T05:10:13;4.40;98.20
921;DHT22;447;51.332;6.778;2023-02-28T05:12:41;4.40;98.20
921;DHT22;447;51.332;6.778;2023-02-28T05:15:12;4.40;98.20
921;DHT22;447;51.332;6.778;2023-02-28T05:17:39;4.30;98.20
921;DHT22;447;51.332;6.778;2023-02-28T05:20:09;4.30;98.20
921;DHT22;447;51.332;6.778;2023-02-28T05:22:45;4.40;98.20
921;DHT22;447;51.332;6.778;2023-02-28T05:25:17;4.30;98.20
921;DHT22;447;51.332;6.778;2023-02-28T05:27:44;4.30;98.20
921;DHT22;447;51.332;6.778;2023-02-28T05:30:13;4.30;98.20
921;DHT22;447;51.332;6.778;2023-02-28T05:32:40;4.30;98.10
921;DHT22;447;51.332;6.778;2023-02-28T05:35:11;4.30;98.20
921;DHT22;447;51.332;6.778;2023-02-28T05:37:39;4.30;98.20
921;DHT22;447;51.332;6.778;2023-02-28T05:40:08;4.30;98.20
921;DHT22;447;51.332;6.778;2023-02-28T05:42:37;4.30;98.20
921;DHT22;447;51.332;6.778;2023-02-28T05:45:06;4.30;98.20
921;DHT22;447;51.332;6.778;2023-02-28T05:47:34;4.30;98.20
921;DHT22;447;51.332;6.778;2023-02-28T05:50:03;4.30;98.20
921;DHT22;447;51.332;6.778;2023-02-28T05:52:32;4.30;98.20
921;DHT22;447;51.332;6.778;2023-02-28T05:54:57;4.20;98.10
921;DHT22;447;51.332;6.778;2023-02-28T05:57:24;4.20;98.10
921;DHT22;447;51.332;6.778;2023-02-28T05:59:52;4.20;98.10
921;DHT22;447;51.332;6.778;2023-02-28T06:02:19;4.20;98.10
921;DHT22;447;51.332;6.778;2023-02-28T06:04:45;4.20;98.10
921;DHT22;447;51.332;6.778;2023-02-28T06:07:11;4.20;98.10
921;DHT22;447;51.332;6.778;2023-02-28T06:09:38;4.20;98.10
921;DHT22;447;51.332;6.778;2023-02-28T06:12:07;4.20;98.10
921;DHT22;447;51.332;6.778;2023-02-28T06:14:35;4.20;98.10
921;DHT22;447;51.332;6.778;2023-02-28T06:17:05;4.20;98.10
921;DHT22;447;51.332;6.778;2023-02-28T06:19:31;4.20;98.10
921;DHT22;447;51.332;6.778;2023-02-28T06:21:57;4.20;98.10
921;DHT22;447;51.332;6.778;2023-02-28T06:24:25;4.20;98.10
921;DHT22;447;51.332;6.778;2023-02-28T06:26:53;4.20;98.10
921;DHT22;447;51.332;6.778;2023-02-28T06:29:19;4.20;98.00
921;DHT22;447;51.332;6.778;2023-02-28T06:31:46;4.20;98.00
921;DHT22;447;51.332;6.778;2023-02-28T06:34:13;4.10;98.00
921;DHT22;447;51.332;6.778;2023-02-28T06:36:40;4.10;98.00
921;DHT22;447;51.332;6.778;2023-02-28T06:39:07;4.10;98.00
921;DHT22;447;51.332;6.778;2023-02-28T06:41:36;4.10;98.00
921;DHT22;447;51.332;6.778;2023-02-28T06:44:17;4.10;98.00
921;DHT22;447;51.332;6.778;2023-02-28T06:46:44;4.10;98.00
921;DHT22;447;51.332;6.778;2023-02-28T06:49:11;4.10;98.00
921;DHT22;447;51.332;6.778;2023-02-28T06:51:42;4.10;98.00
921;DHT22;447;51.332;6.778;2023-02-28T06:54:11;4.10;98.00
921;DHT22;447;51.332;6.778;2023-02-28T06:56:37;4.10;98.00
921;DHT22;447;51.332;6.778;2023-02-28T06:59:05;4.10;98.00
921;DHT22;447;51.332;6.778;2023-02-28T07:01:31;4.10;98.00
921;DHT22;447;51.332;6.778;2023-02-28T07:04:00;4.00;97.90
921;DHT22;447;51.332;6.778;2023-02-28T07:06:26;4.10;98.00
921;DHT22;447;51.332;6.778;2023-02-28T07:08:53;4.10;98.00
921;DHT22;447;51.332;6.778;2023-02-28T07:11:21;4.00;98.00
921;DHT22;447;51.332;6.778;2023-02-28T07:13:49;4.00;97.90
921;DHT22;447;51.332;6.778;2023-02-28T07:16:16;4.00;97.90
921;DHT22;447;51.332;6.778;2023-02-28T07:18:42;4.00;98.30
921;DHT22;447;51.332;6.778;2023-02-28T07:21:11;4.00;98.00
921;DHT22;447;51.332;6.778;2023-02-28T07:23:38;4.00;98.00
921;DHT22;447;51.332;6.778;2023-02-28T07:26:05;4.00;98.00
921;DHT22;447;51.332;6.778;2023-02-28T07:28:32;4.00;98.00
921;DHT22;447;51.332;6.778;2023-02-28T07:31:05;4.00;98.00
921;DHT22;447;51.332;6.778;2023-02-28T07:33:32;4.00;98.00
921;DHT22;447;51.332;6.778;2023-02-28T07:36:10;4.00;98.00
921;DHT22;447;51.332;6.778;2023-02-28T07:38:42;4.00;98.00
921;DHT22;447;51.332;6.778;2023-02-28T07:41:09;4.00;98.00
921;DHT22;447;51.332;6.778;2023-02-28T07:43:38;4.00;98.00
921;DHT22;447;51.332;6.778;2023-02-28T07:46:08;4.00;98.10
921;DHT22;447;51.332;6.778;2023-02-28T07:48:35;3.90;98.00
921;DHT22;447;51.332;6.778;2023-02-28T07:51:01;4.00;98.10
921;DHT22;447;51.332;6.778;2023-02-28T07:53:28;4.00;98.10
921;DHT22;447;51.332;6.778;2023-02-28T07:55:56;4.00;98.10
921;DHT22;447;51.332;6.778;2023-02-28T07:58:22;3.90;98.10
921;DHT22;447;51.332;6.778;2023-02-28T08:00:48;3.90;98.10
921;DHT22;447;51.332;6.778;2023-02-28T08:03:18;3.90;98.10
921;DHT22;447;51.332;6.778;2023-02-28T08:05:44;4.00;98.10
921;DHT22;447;51.332;6.778;2023-02-28T08:08:14;3.90;98.10
921;DHT22;447;51.332;6.778;2023-02-28T08:10:42;3.90;98.00
921;DHT22;447;51.332;6.778;2023-02-28T08:13:13;3.90;98.00
921;DHT22;447;51.332;6.778;2023-02-28T08:15:41;4.00;98.10
921;DHT22;447;51.332;6.778;2023-02-28T08:18:08;3.90;98.10
921;DHT22;447;51.332;6.778;2023-02-28T08:20:36;4.00;98.20
921;DHT22;447;51.332;6.778;2023-02-28T08:23:02;3.90;98.20
921;DHT22;447;51.332;6.778;2023-02-28T08:25:31;3.90;98.10
921;DHT22;447;51.332;6.778;2023-02-28T08:27:56;3.90;98.10
921;DHT22;447;51.332;6.778;2023-02-28T08:30:23;3.90;98.10
921;DHT22;447;51.332;6.778;2023-02-28T08:32:49;3.90;98.00
921;DHT22;447;51.332;6.778;2023-02-28T08:35:15;3.90;98.00
921;DHT22;447;51.332;6.778;2023-02-28T08:37:43;3.90;98.10
921;DHT22;447;51.332;6.778;2023-02-28T08:40:09;3.90;98.00
921;DHT22;447;51.332;6.778;2023-02-28T08:42:36;3.90;98.00
921;DHT22;447;51.332;6.778;2023-02-28T08:45:02;3.90;98.00
921;DHT22;447;51.332;6.778;2023-02-28T08:47:28;3.90;98.00
921;DHT22;447;51.332;6.778;2023-02-28T08:49:56;3.90;98.00
921;DHT22;447;51.332;6.778;2023-02-28T08:52:24;3.90;97.90
921;DHT22;447;51.332;6.778;2023-02-28T08:54:50;3.90;97.90
921;DHT22;447;51.332;6.778;2023-02-28T08:57:16;3.90;97.90
921;DHT22;447;51.332;6.778;2023-02-28T08:59:45;3.90;97.90
921;DHT22;447;51.332;6.778;2023-02-28T09:02:14;3.90;97.90
921;DHT22;447;51.332;6.778;2023-02-28T09:04:43;4.00;98.00
921;DHT22;447;51.332;6.778;2023-02-28T09:07:11;3.90;97.90
921;DHT22;447;51.332;6.778;2023-02-28T09:09:37;3.90;98.00
921;DHT22;447;51.332;6.778;2023-02-28T09:12:26;3.90;98.00
921;DHT22;447;51.332;6.778;2023-02-28T09:14:55;3.90;98.00
921;DHT22;447;51.332;6.778;2023-02-28T09:17:24;3.90;98.00
921;DHT22;447;51.332;6.778;2023-02-28T09:19:50;3.90;98.00
921;DHT22;447;51.332;6.778;2023-02-28T09:22:16;3.90;98.00
921;DHT22;447;51.332;6.778;2023-02-28T09:24:42;4.00;98.00
921;DHT22;447;51.332;6.778;2023-02-28T09:27:08;4.00;97.90
921;DHT22;447;51.332;6.778;2023-02-28T09:29:37;4.00;97.90
921;DHT22;447;51.332;6.778;2023-02-28T09:32:03;4.00;97.80
921;DHT22;447;51.332;6.778;2023-02-28T09:34:31;4.00;97.70
921;DHT22;447;51.332;6.778;2023-02-28T09:36:57;4.00;97.70
921;DHT22;447;51.332;6.778;2023-02-28T09:39:26;4.10;97.70
921;DHT22;447;51.332;6.778;2023-02-28T09:41:54;4.00;97.60
921;DHT22;447;51.332;6.778;2023-02-28T09:44:38;4.10;97.70
921;DHT22;447;51.332;6.778;2023-02-28T09:49:43;4.10;97.60
921;DHT22;447;51.332;6.778;2023-02-28T09:52:32;4.10;97.50
921;DHT22;447;51.332;6.778;2023-02-28T09:55:20;4.10;97.50
921;DHT22;447;51.332;6.778;2023-02-28T09:57:49;4.10;97.40
921;DHT22;447;51.332;6.778;2023-02-28T10:05:42;4.20;97.20
921;DHT22;447;51.332;6.778;2023-02-28T10:08:22;4.20;97.10
921;DHT22;447;51.332;6.778;2023-02-28T10:11:00;4.20;97.10
921;DHT22;447;51.332;6.778;2023-02-28T10:16:11;4.30;96.80
921;DHT22;447;51.332;6.778;2023-02-28T10:18:46;4.30;96.60
921;DHT22;447;51.332;6.778;2023-02-28T10:21:26;4.30;96.40
921;DHT22;447;51.332;6.778;2023-02-28T10:24:03;4.40;96.20
921;DHT22;447;51.332;6.778;2023-02-28T10:26:32;4.40;96.10
921;DHT22;447;51.332;6.778;2023-02-28T10:28:58;4.40;96.10
921;DHT22;447;51.332;6.778;2023-02-28T10:31:24;4.40;96.10
921;DHT22;447;51.332;6.778;2023-02-28T10:33:50;4.40;96.00
921;DHT22;447;51.332;6.778;2023-02-28T10:36:19;4.40;96.00
921;DHT22;447;51.332;6.778;2023-02-28T10:38:48;4.40;96.00
921;DHT22;447;51.332;6.778;2023-02-28T10:41:32;4.40;95.80
921;DHT22;447;51.332;6.778;2023-02-28T10:44:20;4.40;95.70
921;DHT22;447;51.332;6.778;2023-02-28T10:46:51;4.50;95.80
921;DHT22;447;51.332;6.778;2023-02-28T10:49:27;4.50;95.70
921;DHT22;447;51.332;6.778;2023-02-28T10:51:59;4.50;95.80
921;DHT22;447;51.332;6.778;2023-02-28T10:54:36;4.50;95.70
921;DHT22;447;51.332;6.778;2023-02-28T10:57:23;4.50;95.70
921;DHT22;447;51.332;6.778;2023-02-28T11:00:12;4.50;95.80
921;DHT22;447;51.332;6.778;2023-02-28T11:02:42;4.50;95.70
921;DHT22;447;51.332;6.778;2023-02-28T11:05:33;4.50;95.60
921;DHT22;447;51.332;6.778;2023-02-28T11:08:14;4.50;95.60
921;DHT22;447;51.332;6.778;2023-02-28T11:10:48;4.60;95.40
921;DHT22;447;51.332;6.778;2023-02-28T11:13:24;4.60;95.30
921;DHT22;447;51.332;6.778;2023-02-28T11:15:56;4.60;95.40
921;DHT22;447;51.332;6.778;2023-02-28T11:20:57;4.60;95.00
921;DHT22;447;51.332;6.778;2023-02-28T11:23:30;4.60;94.90
921;DHT22;447;51.332;6.778;2023-02-28T11:26:01;4.70;94.90
921;DHT22;447;51.332;6.778;2023-02-28T11:31:23;4.70;94.80
921;DHT22;447;51.332;6.778;2023-02-28T11:33:49;4.70;94.70
921;DHT22;447;51.332;6.778;2023-02-28T11:36:27;4.70;94.70
921;DHT22;447;51.332;6.778;2023-02-28T11:38:59;4.70;94.70
921;DHT22;447;51.332;6.778;2023-02-28T11:56:06;4.80;94.80
921;DHT22;447;51.332;6.778;2023-02-28T12:01:37;4.80;94.60
921;DHT22;447;51.332;6.778;2023-02-28T12:07:20;4.90;94.60
921;DHT22;447;51.332;6.778;2023-02-28T12:12:36;4.90;94.60
921;DHT22;447;51.332;6.778;2023-02-28T12:17:55;4.90;94.60
921;DHT22;447;51.332;6.778;2023-02-28T12:20:37;5.00;94.70
921;DHT22;447;51.332;6.778;2023-02-28T12:26:11;5.00;94.70
921;DHT22;447;51.332;6.778;2023-02-28T12:28:53;5.00;94.80
921;DHT22;447;51.332;6.778;2023-02-28T12:31:29;5.00;94.80
921;DHT22;447;51.332;6.778;2023-02-28T12:34:01;5.00;94.80
921;DHT22;447;51.332;6.778;2023-02-28T12:36:31;5.00;94.80
921;DHT22;447;51.332;6.778;2023-02-28T12:41:34;5.00;94.70
921;DHT22;447;51.332;6.778;2023-02-28T12:44:12;5.10;94.80
921;DHT22;447;51.332;6.778;2023-02-28T12:46:43;5.10;94.80
921;DHT22;447;51.332;6.778;2023-02-28T12:49:39;5.10;94.80
921;DHT22;447;51.332;6.778;2023-02-28T12:52:08;5.10;94.70
921;DHT22;447;51.332;6.778;2023-02-28T12:54:46;5.10;94.70
921;DHT22;447;51.332;6.778;2023-02-28T13:00:19;5.20;94.70
921;DHT22;447;51.332;6.778;2023-02-28T13:11:24;5.20;94.40
921;DHT22;447;51.332;6.778;2023-02-28T13:14:05;5.20;94.30
921;DHT22;447;51.332;6.778;2023-02-28T13:19:18;5.30;94.30
921;DHT22;447;51.332;6.778;2023-02-28T13:21:48;5.30;94.30
921;DHT22;447;51.332;6.778;2023-02-28T13:24:44;5.30;94.20
921;DHT22;447;51.332;6.778;2023-02-28T13:29:44;5.30;94.30
921;DHT22;447;51.332;6.778;2023-02-28T13:47:41;5.40;94.40
921;DHT22;447;51.332;6.778;2023-02-28T13:50:22;5.40;94.30
921;DHT22;447;51.332;6.778;2023-02-28T14:04:53;5.40;94.20
921;DHT22;447;51.332;6.778;2023-02-28T14:07:41;5.40;94.20
921;DHT22;447;51.332;6.778;2023-02-28T14:10:21;5.40;94.10
921;DHT22;447;51.332;6.778;2023-02-28T14:12:56;5.40;94.20
921;DHT22;447;51.332;6.778;2023-02-28T14:18:00;5.50;94.40
921;DHT22;447;51.332;6.778;2023-02-28T14:20:30;5.50;94.30
921;DHT22;447;51.332;6.778;2023-02-28T14:23:10;5.50;94.20
921;DHT22;447;51.332;6.778;2023-02-28T14:26:27;5.50;94.10
921;DHT22;447;51.332;6.778;2023-02-28T14:29:21;5.50;94.10
921;DHT22;447;51.332;6.778;2023-02-28T14:31:58;5.60;94.20
921;DHT22;447;51.332;6.778;2023-02-28T14:34:51;5.50;94.10
921;DHT22;447;51.332;6.778;2023-02-28T14:37:27;5.60;94.20
921;DHT22;447;51.332;6.778;2023-02-28T14:39:54;5.60;94.20
921;DHT22;447;51.332;6.778;2023-02-28T14:44:55;5.60;94.00
921;DHT22;447;51.332;6.778;2023-02-28T14:47:23;5.60;94.10
921;DHT22;447;51.332;6.778;2023-02-28T14:49:54;5.60;94.20
921;DHT22;447;51.332;6.778;2023-02-28T14:52:23;5.60;94.10
921;DHT22;447;51.332;6.778;2023-02-28T14:55:01;5.70;94.10
921;DHT22;447;51.332;6.778;2023-02-28T14:57:29;5.70;94.50
921;DHT22;447;51.332;6.778;2023-02-28T15:00:21;5.70;94.10
921;DHT22;447;51.332;6.778;2023-02-28T15:02:48;5.70;94.10
921;DHT22;447;51.332;6.778;2023-02-28T15:07:43;5.70;94.30
921;DHT22;447;51.332;6.778;2023-02-28T15:10:30;5.70;94.00
921;DHT22;447;51.332;6.778;2023-02-28T15:13:01;5.70;94.30
921;DHT22;447;51.332;6.778;2023-02-28T15:15:52;5.70;94.10
921;DHT22;447;51.332;6.778;2023-02-28T15:20:49;5.70;94.10
921;DHT22;447;51.332;6.778;2023-02-28T15:23:22;5.70;94.10
921;DHT22;447;51.332;6.778;2023-02-28T15:25:50;5.70;94.00
921;DHT22;447;51.332;6.778;2023-02-28T15:28:20;5.80;94.10
921;DHT22;447;51.332;6.778;2023-02-28T15:31:03;5.80;94.20
921;DHT22;447;51.332;6.778;2023-02-28T15:33:31;5.80;94.20
921;DHT22;447;51.332;6.778;2023-02-28T15:36:12;5.80;94.20
921;DHT22;447;51.332;6.778;2023-02-28T15:38:39;5.80;94.10
921;DHT22;447;51.332;6.778;2023-02-28T15:41:29;5.80;94.20
921;DHT22;447;51.332;6.778;2023-02-28T15:44:25;5.80;94.20
921;DHT22;447;51.332;6.778;2023-02-28T15:49:53;5.80;94.10
921;DHT22;447;51.332;6.778;2023-02-28T15:52:39;5.80;94.00
921;DHT22;447;51.332;6.778;2023-02-28T15:55:20;5.80;94.10
921;DHT22;447;51.332;6.778;2023-02-28T15:57:50;5.80;94.00
921;DHT22;447;51.332;6.778;2023-02-28T16:00:21;5.80;94.00
921;DHT22;447;51.332;6.778;2023-02-28T16:02:48;5.80;94.00
921;DHT22;447;51.332;6.778;2023-02-28T16:05:29;5.80;94.00
921;DHT22;447;51.332;6.778;2023-02-28T16:08:06;5.80;94.00
921;DHT22;447;51.332;6.778;2023-02-28T16:10:36;5.80;94.00
921;DHT22;447;51.332;6.778;2023-02-28T16:13:03;5.80;94.00
921;DHT22;447;51.332;6.778;2023-02-28T16:15:33;5.80;94.00
921;DHT22;447;51.332;6.778;2023-02-28T16:18:01;5.80;94.00
921;DHT22;447;51.332;6.778;2023-02-28T16:20:29;5.80;94.10
921;DHT22;447;51.332;6.778;2023-02-28T16:22:55;5.80;94.20
921;DHT22;447;51.332;6.778;2023-02-28T16:25:35;5.80;94.10
921;DHT22;447;51.332;6.778;2023-02-28T16:28:08;5.80;94.20
921;DHT22;447;51.332;6.778;2023-02-28T16:30:40;5.80;94.20
921;DHT22;447;51.332;6.778;2023-02-28T16:33:09;5.80;94.20
921;DHT22;447;51.332;6.778;2023-02-28T16:35:35;5.70;94.20
921;DHT22;447;51.332;6.778;2023-02-28T16:38:08;5.80;94.30
921;DHT22;447;51.332;6.778;2023-02-28T16:40:36;5.80;94.30
921;DHT22;447;51.332;6.778;2023-02-28T16:43:17;5.80;94.30
921;DHT22;447;51.332;6.778;2023-02-28T16:45:45;5.80;94.30
921;DHT22;447;51.332;6.778;2023-02-28T16:48:15;5.70;94.40
921;DHT22;447;51.332;6.778;2023-02-28T16:50:46;5.70;94.50
921;DHT22;447;51.332;6.778;2023-02-28T16:53:14;5.70;94.40
921;DHT22;447;51.332;6.778;2023-02-28T16:55:43;5.70;94.50
921;DHT22;447;51.332;6.778;2023-02-28T16:58:14;5.70;94.40
921;DHT22;447;51.332;6.778;2023-02-28T17:00:43;5.70;94.40
921;DHT22;447;51.332;6.778;2023-02-28T17:03:25;5.70;94.50
921;DHT22;447;51.332;6.778;2023-02-28T17:05:53;5.70;94.60
921;DHT22;447;51.332;6.778;2023-02-28T17:08:21;5.70;94.60
921;DHT22;447;51.332;6.778;2023-02-28T17:10:47;5.70;94.70
921;DHT22;447;51.332;6.778;2023-02-28T17:13:16;5.70;94.70
921;DHT22;447;51.332;6.778;2023-02-28T17:15:46;5.70;94.80
921;DHT22;447;51.332;6.778;2023-02-28T17:18:17;5.70;94.80
921;DHT22;447;51.332;6.778;2023-02-28T17:20:47;5.70;95.00
921;DHT22;447;51.332;6.778;2023-02-28T17:23:18;5.70;95.00
921;DHT22;447;51.332;6.778;2023-02-28T17:25:49;5.70;95.00
921;DHT22;447;51.332;6.778;2023-02-28T17:28:21;5.70;94.90
921;DHT22;447;51.332;6.778;2023-02-28T17:30:50;5.70;95.00
921;DHT22;447;51.332;6.778;2023-02-28T17:33:23;5.70;95.10
921;DHT22;447;51.332;6.778;2023-02-28T17:35:51;5.70;95.10
921;DHT22;447;51.332;6.778;2023-02-28T17:38:20;5.70;95.10
921;DHT22;447;51.332;6.778;2023-02-28T17:40:48;5.70;95.20
921;DHT22;447;51.332;6.778;2023-02-28T17:43:26;5.70;95.30
921;DHT22;447;51.332;6.778;2023-02-28T17:45:55;5.70;95.30
921;DHT22;447;51.332;6.778;2023-02-28T17:48:21;5.70;95.40
921;DHT22;447;51.332;6.778;2023-02-28T17:50:48;5.60;95.40
921;DHT22;447;51.332;6.778;2023-02-28T17:53:16;5.60;95.50
921;DHT22;447;51.332;6.778;2023-02-28T17:55:47;5.70;95.50
921;DHT22;447;51.332;6.778;2023-02-28T17:58:13;5.70;95.60
921;DHT22;447;51.332;6.778;2023-02-28T18:00:39;5.70;95.60
921;DHT22;447;51.332;6.778;2023-02-28T18:03:07;5.70;95.60
921;DHT22;447;51.332;6.778;2023-02-28T18:05:35;5.60;95.60
921;DHT22;447;51.332;6.778;2023-02-28T18:08:02;5.60;95.70
921;DHT22;447;51.332;6.778;2023-02-28T18:10:28;5.60;95.70
921;DHT22;447;51.332;6.778;2023-02-28T18:12:59;5.60;96.10
921;DHT22;447;51.332;6.778;2023-02-28T18:15:25;5.60;95.80
921;DHT22;447;51.332;6.778;2023-02-28T18:17:51;5.60;95.80
921;DHT22;447;51.332;6.778;2023-02-28T18:20:20;5.60;95.90
921;DHT22;447;51.332;6.778;2023-02-28T18:22:49;5.60;95.90
921;DHT22;447;51.332;6.778;2023-02-28T18:25:17;5.60;95.90
921;DHT22;447;51.332;6.778;2023-02-28T18:27:45;5.60;95.90
921;DHT22;447;51.332;6.778;2023-02-28T18:30:32;5.60;95.90
921;DHT22;447;51.332;6.778;2023-02-28T18:32:59;5.60;95.90
921;DHT22;447;51.332;6.778;2023-02-28T18:35:29;5.60;95.90
921;DHT22;447;51.332;6.778;2023-02-28T18:38:23;5.60;95.90
921;DHT22;447;51.332;6.778;2023-02-28T18:40:56;5.60;95.90
921;DHT22;447;51.332;6.778;2023-02-28T18:43:28;5.60;95.90
921;DHT22;447;51.332;6.778;2023-02-28T18:45:54;5.60;96.00
921;DHT22;447;51.332;6.778;2023-02-28T18:48:25;5.60;96.00
921;DHT22;447;51.332;6.778;2023-02-28T18:50:53;5.60;95.90
921;DHT22;447;51.332;6.778;2023-02-28T18:53:19;5.70;96.00
921;DHT22;447;51.332;6.778;2023-02-28T18:55:45;5.70;96.00
921;DHT22;447;51.332;6.778;2023-02-28T18:58:13;5.70;95.90
921;DHT22;447;51.332;6.778;2023-02-28T19:00:39;5.60;95.90
921;DHT22;447;51.332;6.778;2023-02-28T19:03:11;5.60;95.90
921;DHT22;447;51.332;6.778;2023-02-28T19:05:40;5.60;95.90
921;DHT22;447;51.332;6.778;2023-02-28T19:08:06;5.60;95.90
921;DHT22;447;51.332;6.778;2023-02-28T19:10:32;5.60;95.90
921;DHT22;447;51.332;6.778;2023-02-28T19:12:58;5.60;96.00
921;DHT22;447;51.332;6.778;2023-02-28T19:15:24;5.60;96.00
921;DHT22;447;51.332;6.778;2023-02-28T19:17:50;5.60;96.00
921;DHT22;447;51.332;6.778;2023-02-28T19:20:23;5.60;96.10
921;DHT22;447;51.332;6.778;2023-02-28T19:22:51;5.60;96.10
921;DHT22;447;51.332;6.778;2023-02-28T19:25:20;5.60;96.50
921;DHT22;447;51.332;6.778;2023-02-28T19:27:52;5.60;96.10
921;DHT22;447;51.332;6.778;2023-02-28T19:30:21;5.60;96.10
921;DHT22;447;51.332;6.778;2023-02-28T19:32:55;5.50;96.10
921;DHT22;447;51.332;6.778;2023-02-28T19:35:26;5.50;96.10
921;DHT22;447;51.332;6.778;2023-02-28T19:37:52;5.50;96.10
921;DHT22;447;51.332;6.778;2023-02-28T19:40:20;5.50;96.20